sensor_id;sensor_type;location;lat;lon;timestamp;pressure;altitude;pressure_sealevel;temperature;humidity
45864;BME280;31579;52.354;16.974;2023-01-27T00:01:00;170.3;;;-146.1;100.0
45864;BME280;31579;52.354;16.974;2023-01-27T00:02:03;195.5;;;-146.1;100.0
45864;BME280;31579;52.354;16.974;2023-01-27T00:03:08;208.1;;;-146.1;100.0
45864;BME280;31579;52.354;16.974;2023-01-27T00:04:09;213.2;;;-146.1;100.0
45864;BME280;31579;52.354;16.974;2023-01-27T00:05:13;215.1;;;-146.1;100.0
45864;BME280;31579;52.354;16.974;2023-01-27T00:06:15;216.1;;;-146.1;100.0
45864;BME280;31579;52.354;16.974;2023-01-27T00:07:18;217.3;;;-146.1;100.0
45864;BME280;31579;52.354;16.974;2023-01-27T00:08:21;218.3;;;-146.1;100.0
45864;BME280;31579;52.354;16.974;2023-01-27T00:09:24;218.9;;;-146.1;100.0
45864;BME280;31579;52.354;16.974;2023-01-27T00:10:27;219.9;;;-146.1;100.0
45864;BME280;31579;52.354;16.974;2023-01-27T00:11:30;220.7;;;-146.1;100.0
45864;BME280;31579;52.354;16.974;2023-01-27T00:12:33;220.9;;;-146.1;100.0
45864;BME280;31579;52.354;16.974;2023-01-27T00:13:36;221.3;;;-146.1;100.0
45864;BME280;31579;52.354;16.974;2023-01-27T00:14:39;221.8;;;-146.1;100.0
45864;BME280;31579;52.354;16.974;2023-01-27T00:15:43;221.8;;;-146.1;100.0
45864;BME280;31579;52.354;16.974;2023-01-27T00:16:45;222.1;;;-146.1;100.0
45864;BME280;31579;52.354;16.974;2023-01-27T00:17:48;222.5;;;-146.1;100.0
45864;BME280;31579;52.354;16.974;2023-01-27T00:18:51;222.5;;;-146.1;100.0
45864;BME280;31579;52.354;16.974;2023-01-27T00:19:54;222.5;;;-146.1;100.0
45864;BME280;31579;52.354;16.974;2023-01-27T00:20:57;222.9;;;-146.1;100.0
45864;BME280;31579;52.354;16.974;2023-01-27T00:22:01;271.4;;;-146.1;100.0
45864;BME280;31579;52.354;16.974;2023-01-27T00:23:04;234.7;;;-146.1;100.0
45864;BME280;31579;52.354;16.974;2023-01-27T00:24:08;222.6;;;-146.1;100.0
45864;BME280;31579;52.354;16.974;2023-01-27T00:25:10;218.0;;;-146.1;100.0
45864;BME280;31579;52.354;16.974;2023-01-27T00:26:14;215.7;;;-146.1;100.0
45864;BME280;31579;52.354;16.974;2023-01-27T00:27:16;213.6;;;-146.1;100.0
45864;BME280;31579;52.354;16.974;2023-01-27T00:28:19;212.4;;;-146.1;100.0
45864;BME280;31579;52.354;16.974;2023-01-27T00:29:22;211.8;;;-146.1;100.0
45864;BME280;31579;52.354;16.974;2023-01-27T00:30:25;211.2;;;-146.1;100.0
45864;BME280;31579;52.354;16.974;2023-01-27T00:31:28;211.3;;;-146.1;100.0
45864;BME280;31579;52.354;16.974;2023-01-27T00:32:31;210.3;;;-146.1;100.0
45864;BME280;31579;52.354;16.974;2023-01-27T00:33:34;211.1;;;-146.1;100.0
45864;BME280;31579;52.354;16.974;2023-01-27T00:34:37;210.4;;;-146.1;100.0
45864;BME280;31579;52.354;16.974;2023-01-27T00:35:40;208.9;;;-146.1;100.0
45864;BME280;31579;52.354;16.974;2023-01-27T00:36:43;208.7;;;-146.1;100.0
45864;BME280;31579;52.354;16.974;2023-01-27T00:37:46;207.1;;;-146.1;100.0
45864;BME280;31579;52.354;16.974;2023-01-27T00:38:49;205.7;;;-146.1;100.0
45864;BME280;31579;52.354;16.974;2023-01-27T00:39:52;204.7;;;-146.1;100.0
45864;BME280;31579;52.354;16.974;2023-01-27T00:40:56;248.4;;;-146.1;100.0
45864;BME280;31579;52.354;16.974;2023-01-27T00:41:59;213.4;;;-146.1;100.0
45864;BME280;31579;52.354;16.974;2023-01-27T00:43:02;202.5;;;-146.1;100.0
45864;BME280;31579;52.354;16.974;2023-01-27T00:44:06;198.8;;;-146.1;100.0
45864;BME280;31579;52.354;16.974;2023-01-27T00:45:09;197.3;;;-146.1;100.0
45864;BME280;31579;52.354;16.974;2023-01-27T00:46:12;196.7;;;-146.1;100.0
45864;BME280;31579;52.354;16.974;2023-01-27T00:47:15;196.0;;;-146.1;100.0
45864;BME280;31579;52.354;16.974;2023-01-27T00:48:18;195.8;;;-146.1;100.0
45864;BME280;31579;52.354;16.974;2023-01-27T00:49:21;195.2;;;-146.1;100.0
45864;BME280;31579;52.354;16.974;2023-01-27T00:50:24;194.6;;;-146.1;100.0
45864;BME280;31579;52.354;16.974;2023-01-27T00:51:27;195.0;;;-146.1;100.0
45864;BME280;31579;52.354;16.974;2023-01-27T00:52:30;196.1;;;-146.1;100.0
45864;BME280;31579;52.354;16.974;2023-01-27T00:53:33;195.1;;;-146.1;100.0
45864;BME280;31579;52.354;16.974;2023-01-27T00:54:36;194.7;;;-146.1;100.0
45864;BME280;31579;52.354;16.974;2023-01-27T00:55:40;194.4;;;-146.1;100.0
45864;BME280;31579;52.354;16.974;2023-01-27T00:56:42;194.2;;;-146.1;100.0
45864;BME280;31579;52.354;16.974;2023-01-27T00:57:45;194.2;;;-146.1;100.0
45864;BME280;31579;52.354;16.974;2023-01-27T00:58:48;194.3;;;-146.1;100.0
45864;BME280;31579;52.354;16.974;2023-01-27T00:59:51;196.3;;;-146.1;100.0
45864;BME280;31579;52.354;16.974;2023-01-27T01:00:58;195.6;;;-146.1;100.0
45864;BME280;31579;52.354;16.974;2023-01-27T01:01:57;195.9;;;-146.1;100.0
45864;BME280;31579;52.354;16.974;2023-01-27T01:03:01;238.7;;;-146.1;100.0
45864;BME280;31579;52.354;16.974;2023-01-27T01:04:04;206.0;;;-146.1;100.0
45864;BME280;31579;52.354;16.974;2023-01-27T01:05:07;195.8;;;-146.1;100.0
45864;BME280;31579;52.354;16.974;2023-01-27T01:06:11;190.3;;;-146.1;100.0
45864;BME280;31579;52.354;16.974;2023-01-27T01:07:14;225.5;;;-146.1;100.0
45864;BME280;31579;52.354;16.974;2023-01-27T01:08:17;193.3;;;-146.1;100.0
45864;BME280;31579;52.354;16.974;2023-01-27T01:09:20;182.8;;;-146.1;100.0
45864;BME280;31579;52.354;16.974;2023-01-27T01:10:23;178.8;;;-146.1;100.0
45864;BME280;31579;52.354;16.974;2023-01-27T01:11:26;177.0;;;-146.1;100.0
45864;BME280;31579;52.354;16.974;2023-01-27T01:12:29;175.8;;;-146.1;100.0
45864;BME280;31579;52.354;16.974;2023-01-27T01:13:33;175.2;;;-146.1;100.0
45864;BME280;31579;52.354;16.974;2023-01-27T01:14:35;174.4;;;-146.1;100.0
45864;BME280;31579;52.354;16.974;2023-01-27T01:15:39;175.1;;;-146.1;100.0
45864;BME280;31579;52.354;16.974;2023-01-27T01:16:41;175.2;;;-146.1;100.0
45864;BME280;31579;52.354;16.974;2023-01-27T01:17:44;174.8;;;-146.1;100.0
45864;BME280;31579;52.354;16.974;2023-01-27T01:18:47;174.9;;;-146.1;100.0
45864;BME280;31579;52.354;16.974;2023-01-27T01:19:50;175.1;;;-146.1;100.0
45864;BME280;31579;52.354;16.974;2023-01-27T01:20:53;176.2;;;-146.1;100.0
45864;BME280;31579;52.354;16.974;2023-01-27T01:21:55;146.3;;;-146.1;100.0
45864;BME280;31579;52.354;16.974;2023-01-27T01:22:59;167.3;;;-146.1;100.0
45864;BME280;31579;52.354;16.974;2023-01-27T01:24:03;179.9;;;-146.1;100.0
45864;BME280;31579;52.354;16.974;2023-01-27T01:25:06;185.0;;;-146.1;100.0
45864;BME280;31579;52.354;16.974;2023-01-27T01:26:10;187.5;;;-146.1;100.0
45864;BME280;31579;52.354;16.974;2023-01-27T01:27:12;188.4;;;-146.1;100.0
45864;BME280;31579;52.354;16.974;2023-01-27T01:28:15;190.9;;;-146.1;100.0
45864;BME280;31579;52.354;16.974;2023-01-27T01:29:19;238.1;;;-146.1;100.0
45864;BME280;31579;52.354;16.974;2023-01-27T01:30:22;204.2;;;-146.1;100.0
45864;BME280;31579;52.354;16.974;2023-01-27T01:31:25;193.5;;;-146.1;100.0
45864;BME280;31579;52.354;16.974;2023-01-27T01:32:28;189.9;;;-146.1;100.0
45864;BME280;31579;52.354;16.974;2023-01-27T01:33:31;188.4;;;-146.1;100.0
45864;BME280;31579;52.354;16.974;2023-01-27T01:34:35;187.3;;;-146.1;100.0
45864;BME280;31579;52.354;16.974;2023-01-27T01:35:37;187.6;;;-146.1;100.0
45864;BME280;31579;52.354;16.974;2023-01-27T01:36:40;185.9;;;-146.1;100.0
45864;BME280;31579;52.354;16.974;2023-01-27T01:37:43;185.0;;;-146.1;100.0
45864;BME280;31579;52.354;16.974;2023-01-27T01:38:47;185.3;;;-146.1;100.0
45864;BME280;31579;52.354;16.974;2023-01-27T01:39:49;185.2;;;-146.1;100.0
45864;BME280;31579;52.354;16.974;2023-01-27T01:40:52;185.1;;;-146.1;100.0
45864;BME280;31579;52.354;16.974;2023-01-27T01:41:56;189.5;;;-146.1;100.0
45864;BME280;31579;52.354;16.974;2023-01-27T01:42:59;153.5;;;-146.1;100.0
45864;BME280;31579;52.354;16.974;2023-01-27T01:46:16;184.2;;;-146.1;100.0
45864;BME280;31579;52.354;16.974;2023-01-27T01:47:18;174.0;;;-146.1;100.0
45864;BME280;31579;52.354;16.974;2023-01-27T01:48:41;238.3;;;-146.1;100.0
45864;BME280;31579;52.354;16.974;2023-01-27T01:49:55;235.0;;;-146.1;100.0
45864;BME280;31579;52.354;16.974;2023-01-27T01:51:02;164.2;;;-146.1;100.0
45864;BME280;31579;52.354;16.974;2023-01-27T01:52:05;154.5;;;-146.1;100.0
45864;BME280;31579;52.354;16.974;2023-01-27T01:53:05;156.7;;;-146.1;100.0
45864;BME280;31579;52.354;16.974;2023-01-27T01:54:10;161.2;;;-146.1;100.0
45864;BME280;31579;52.354;16.974;2023-01-27T01:55:11;165.9;;;-146.1;100.0
45864;BME280;31579;52.354;16.974;2023-01-27T01:56:18;170.2;;;-146.1;100.0
45864;BME280;31579;52.354;16.974;2023-01-27T01:57:19;174.3;;;-146.1;100.0
45864;BME280;31579;52.354;16.974;2023-01-27T01:58:20;177.3;;;-146.1;100.0
45864;BME280;31579;52.354;16.974;2023-01-27T01:59:25;180.8;;;-146.1;100.0
45864;BME280;31579;52.354;16.974;2023-01-27T02:00:26;183.3;;;-146.1;100.0
45864;BME280;31579;52.354;16.974;2023-01-27T02:01:29;185.8;;;-146.1;100.0
45864;BME280;31579;52.354;16.974;2023-01-27T02:02:32;186.9;;;-146.1;100.0
45864;BME280;31579;52.354;16.974;2023-01-27T02:03:35;187.5;;;-146.1;100.0
45864;BME280;31579;52.354;16.974;2023-01-27T02:04:44;188.6;;;-146.1;100.0
45864;BME280;31579;52.354;16.974;2023-01-27T02:05:42;189.2;;;-146.1;100.0
45864;BME280;31579;52.354;16.974;2023-01-27T02:06:46;189.8;;;-146.1;100.0
45864;BME280;31579;52.354;16.974;2023-01-27T02:08:50;189.7;;;-146.1;100.0
45864;BME280;31579;52.354;16.974;2023-01-27T02:09:53;187.3;;;-146.1;100.0
45864;BME280;31579;52.354;16.974;2023-01-27T02:10:56;189.2;;;-146.1;100.0
45864;BME280;31579;52.354;16.974;2023-01-27T02:11:59;189.1;;;-146.1;100.0
45864;BME280;31579;52.354;16.974;2023-01-27T02:13:02;188.9;;;-146.1;100.0
45864;BME280;31579;52.354;16.974;2023-01-27T02:14:05;188.7;;;-146.1;100.0
45864;BME280;31579;52.354;16.974;2023-01-27T02:15:09;188.3;;;-146.1;100.0
45864;BME280;31579;52.354;16.974;2023-01-27T02:16:11;188.0;;;-146.1;100.0
45864;BME280;31579;52.354;16.974;2023-01-27T02:17:14;186.7;;;-146.1;100.0
45864;BME280;31579;52.354;16.974;2023-01-27T02:18:17;186.9;;;-146.1;100.0
45864;BME280;31579;52.354;16.974;2023-01-27T02:19:24;186.4;;;-146.1;100.0
45864;BME280;31579;52.354;16.974;2023-01-27T02:21:26;185.7;;;-146.1;100.0
45864;BME280;31579;52.354;16.974;2023-01-27T02:24:37;183.2;;;-146.1;100.0
45864;BME280;31579;52.354;16.974;2023-01-27T02:26:42;180.9;;;-146.1;100.0
45864;BME280;31579;52.354;16.974;2023-01-27T02:27:44;179.7;;;-146.1;100.0
45864;BME280;31579;52.354;16.974;2023-01-27T02:29:51;205.3;;;-146.1;100.0
45864;BME280;31579;52.354;16.974;2023-01-27T02:30:54;180.1;;;-146.1;100.0
45864;BME280;31579;52.354;16.974;2023-01-27T02:31:57;173.0;;;-146.1;100.0
45864;BME280;31579;52.354;16.974;2023-01-27T02:33:01;195.3;;;-146.1;100.0
45864;BME280;31579;52.354;16.974;2023-01-27T02:35:07;165.9;;;-146.1;100.0
45864;BME280;31579;52.354;16.974;2023-01-27T02:36:12;165.4;;;-146.1;100.0
45864;BME280;31579;52.354;16.974;2023-01-27T02:37:13;165.5;;;-146.1;100.0
45864;BME280;31579;52.354;16.974;2023-01-27T02:38:16;166.7;;;-146.1;100.0
45864;BME280;31579;52.354;16.974;2023-01-27T02:39:20;167.9;;;-146.1;100.0
45864;BME280;31579;52.354;16.974;2023-01-27T02:40:22;168.9;;;-146.1;100.0
45864;BME280;31579;52.354;16.974;2023-01-27T02:42:28;170.3;;;-146.1;100.0
45864;BME280;31579;52.354;16.974;2023-01-27T02:43:31;170.9;;;-146.1;100.0
45864;BME280;31579;52.354;16.974;2023-01-27T02:44:34;171.9;;;-146.1;100.0
45864;BME280;31579;52.354;16.974;2023-01-27T02:45:37;172.5;;;-146.1;100.0
45864;BME280;31579;52.354;16.974;2023-01-27T02:46:40;173.2;;;-146.1;100.0
45864;BME280;31579;52.354;16.974;2023-01-27T02:47:43;173.5;;;-146.1;100.0
45864;BME280;31579;52.354;16.974;2023-01-27T02:48:46;173.8;;;-146.1;100.0
45864;BME280;31579;52.354;16.974;2023-01-27T02:49:49;173.8;;;-146.1;100.0
45864;BME280;31579;52.354;16.974;2023-01-27T02:50:52;174.7;;;-146.1;100.0
45864;BME280;31579;52.354;16.974;2023-01-27T02:51:55;174.1;;;-146.1;100.0
45864;BME280;31579;52.354;16.974;2023-01-27T02:52:58;174.2;;;-146.1;100.0
45864;BME280;31579;52.354;16.974;2023-01-27T02:54:00;155.9;;;-146.1;100.0
45864;BME280;31579;52.354;16.974;2023-01-27T02:55:05;170.9;;;-146.1;100.0
45864;BME280;31579;52.354;16.974;2023-01-27T02:56:07;178.0;;;-146.1;100.0
45864;BME280;31579;52.354;16.974;2023-01-27T02:57:10;179.5;;;-146.1;100.0
45864;BME280;31579;52.354;16.974;2023-01-27T02:58:13;179.1;;;-146.1;100.0
45864;BME280;31579;52.354;16.974;2023-01-27T02:59:16;178.3;;;-146.1;100.0
45864;BME280;31579;52.354;16.974;2023-01-27T03:00:19;177.8;;;-146.1;100.0
45864;BME280;31579;52.354;16.974;2023-01-27T03:01:23;176.6;;;-146.1;100.0
45864;BME280;31579;52.354;16.974;2023-01-27T03:02:25;175.2;;;-146.1;100.0
45864;BME280;31579;52.354;16.974;2023-01-27T03:03:28;174.3;;;-146.1;100.0
45864;BME280;31579;52.354;16.974;2023-01-27T03:04:31;173.6;;;-146.1;100.0
45864;BME280;31579;52.354;16.974;2023-01-27T03:05:34;172.6;;;-146.1;100.0
45864;BME280;31579;52.354;16.974;2023-01-27T03:06:37;171.6;;;-146.1;100.0
45864;BME280;31579;52.354;16.974;2023-01-27T03:07:40;170.8;;;-146.1;100.0
45864;BME280;31579;52.354;16.974;2023-01-27T03:08:43;170.1;;;-146.1;100.0
45864;BME280;31579;52.354;16.974;2023-01-27T03:09:46;169.2;;;-146.1;100.0
45864;BME280;31579;52.354;16.974;2023-01-27T03:10:50;168.5;;;-146.1;100.0
45864;BME280;31579;52.354;16.974;2023-01-27T03:11:52;167.6;;;-146.1;100.0
45864;BME280;31579;52.354;16.974;2023-01-27T03:12:55;166.7;;;-146.1;100.0
45864;BME280;31579;52.354;16.974;2023-01-27T03:13:58;166.2;;;-146.1;100.0
45864;BME280;31579;52.354;16.974;2023-01-27T03:15:00;142.9;;;-146.1;100.0
45864;BME280;31579;52.354;16.974;2023-01-27T03:16:05;158.6;;;-146.1;100.0
45864;BME280;31579;52.354;16.974;2023-01-27T03:17:07;166.9;;;-146.1;100.0
45864;BME280;31579;52.354;16.974;2023-01-27T03:18:10;168.3;;;-146.1;100.0
45864;BME280;31579;52.354;16.974;2023-01-27T03:19:13;168.0;;;-146.1;100.0
45864;BME280;31579;52.354;16.974;2023-01-27T03:20:16;168.1;;;-146.1;100.0
45864;BME280;31579;52.354;16.974;2023-01-27T03:21:19;166.6;;;-146.1;100.0
45864;BME280;31579;52.354;16.974;2023-01-27T03:22:22;164.8;;;-146.1;100.0
45864;BME280;31579;52.354;16.974;2023-01-27T03:23:25;163.7;;;-146.1;100.0
45864;BME280;31579;52.354;16.974;2023-01-27T03:24:28;162.9;;;-146.1;100.0
45864;BME280;31579;52.354;16.974;2023-01-27T03:25:31;162.2;;;-146.1;100.0
45864;BME280;31579;52.354;16.974;2023-01-27T03:26:34;161.1;;;-146.1;100.0
45864;BME280;31579;52.354;16.974;2023-01-27T03:27:37;160.9;;;-146.1;100.0
45864;BME280;31579;52.354;16.974;2023-01-27T03:28:40;160.1;;;-146.1;100.0
45864;BME280;31579;52.354;16.974;2023-01-27T03:29:43;159.7;;;-146.1;100.0
45864;BME280;31579;52.354;16.974;2023-01-27T03:30:46;159.8;;;-146.1;100.0
45864;BME280;31579;52.354;16.974;2023-01-27T03:31:49;158.9;;;-146.1;100.0
45864;BME280;31579;52.354;16.974;2023-01-27T03:32:52;157.5;;;-146.1;100.0
45864;BME280;31579;52.354;16.974;2023-01-27T03:33:55;157.2;;;-146.1;100.0
45864;BME280;31579;52.354;16.974;2023-01-27T03:34:58;156.4;;;-146.1;100.0
45864;BME280;31579;52.354;16.974;2023-01-27T03:36:01;131.8;;;-146.1;100.0
45864;BME280;31579;52.354;16.974;2023-01-27T03:37:04;150.2;;;-146.1;100.0
45864;BME280;31579;52.354;16.974;2023-01-27T03:38:22;227.2;;;-146.1;100.0
45864;BME280;31579;52.354;16.974;2023-01-27T03:39:25;165.1;;;-146.1;100.0
45864;BME280;31579;52.354;16.974;2023-01-27T03:40:28;155.6;;;-146.1;100.0
45864;BME280;31579;52.354;16.974;2023-01-27T03:41:32;151.8;;;-146.1;100.0
45864;BME280;31579;52.354;16.974;2023-01-27T03:42:35;151.0;;;-146.1;100.0
45864;BME280;31579;52.354;16.974;2023-01-27T03:43:38;151.1;;;-146.1;100.0
45864;BME280;31579;52.354;16.974;2023-01-27T03:44:41;150.8;;;-146.1;100.0
45864;BME280;31579;52.354;16.974;2023-01-27T03:46:47;150.5;;;-146.1;100.0
45864;BME280;31579;52.354;16.974;2023-01-27T03:47:50;151.2;;;-146.1;100.0
45864;BME280;31579;52.354;16.974;2023-01-27T03:48:54;151.4;;;-146.1;100.0
45864;BME280;31579;52.354;16.974;2023-01-27T03:49:56;151.3;;;-146.1;100.0
45864;BME280;31579;52.354;16.974;2023-01-27T03:50:59;152.3;;;-146.1;100.0
45864;BME280;31579;52.354;16.974;2023-01-27T03:52:08;221.6;;;-146.1;100.0
45864;BME280;31579;52.354;16.974;2023-01-27T03:53:11;158.3;;;-146.1;100.0
45864;BME280;31579;52.354;16.974;2023-01-27T03:54:15;147.1;;;-146.1;100.0
45864;BME280;31579;52.354;16.974;2023-01-27T03:55:17;145.9;;;-146.1;100.0
45864;BME280;31579;52.354;16.974;2023-01-27T03:56:20;146.3;;;-146.1;100.0
45864;BME280;31579;52.354;16.974;2023-01-27T03:57:23;148.6;;;-146.1;100.0
45864;BME280;31579;52.354;16.974;2023-01-27T03:58:28;150.9;;;-146.1;100.0
45864;BME280;31579;52.354;16.974;2023-01-27T03:59:29;153.3;;;-146.1;100.0
45864;BME280;31579;52.354;16.974;2023-01-27T04:00:32;155.8;;;-146.1;100.0
45864;BME280;31579;52.354;16.974;2023-01-27T04:01:35;157.8;;;-146.1;100.0
45864;BME280;31579;52.354;16.974;2023-01-27T04:02:39;159.4;;;-146.1;100.0
45864;BME280;31579;52.354;16.974;2023-01-27T04:03:42;161.4;;;-146.1;100.0
45864;BME280;31579;52.354;16.974;2023-01-27T04:04:46;162.5;;;-146.1;100.0
45864;BME280;31579;52.354;16.974;2023-01-27T04:05:49;163.3;;;-146.1;100.0
45864;BME280;31579;52.354;16.974;2023-01-27T04:06:52;164.5;;;-146.1;100.0
45864;BME280;31579;52.354;16.974;2023-01-27T04:07:55;165.7;;;-146.1;100.0
45864;BME280;31579;52.354;16.974;2023-01-27T04:08:58;166.9;;;-146.1;100.0
45864;BME280;31579;52.354;16.974;2023-01-27T04:10:02;151.1;;;-146.1;100.0
45864;BME280;31579;52.354;16.974;2023-01-27T04:11:05;165.1;;;-146.1;100.0
45864;BME280;31579;52.354;16.974;2023-01-27T04:12:08;172.6;;;-146.1;100.0
45864;BME280;31579;52.354;16.974;2023-01-27T04:13:11;174.7;;;-146.1;100.0
45864;BME280;31579;52.354;16.974;2023-01-27T04:14:15;174.1;;;-146.1;100.0
45864;BME280;31579;52.354;16.974;2023-01-27T04:15:18;174.9;;;-146.1;100.0
45864;BME280;31579;52.354;16.974;2023-01-27T04:16:21;175.0;;;-146.1;100.0
45864;BME280;31579;52.354;16.974;2023-01-27T04:17:17;185.7;;;-146.1;100.0
45864;BME280;31579;52.354;16.974;2023-01-27T04:18:20;174.9;;;-146.1;100.0
45864;BME280;31579;52.354;16.974;2023-01-27T04:19:23;171.8;;;-146.1;100.0
45864;BME280;31579;52.354;16.974;2023-01-27T04:20:26;171.3;;;-146.1;100.0
45864;BME280;31579;52.354;16.974;2023-01-27T04:21:29;171.2;;;-146.1;100.0
45864;BME280;31579;52.354;16.974;2023-01-27T04:22:32;171.1;;;-146.1;100.0
45864;BME280;31579;52.354;16.974;2023-01-27T04:23:35;171.3;;;-146.1;100.0
45864;BME280;31579;52.354;16.974;2023-01-27T04:24:39;170.8;;;-146.1;100.0
45864;BME280;31579;52.354;16.974;2023-01-27T04:25:42;171.8;;;-146.1;100.0
45864;BME280;31579;52.354;16.974;2023-01-27T04:26:47;171.8;;;-146.1;100.0
45864;BME280;31579;52.354;16.974;2023-01-27T04:27:49;172.3;;;-146.1;100.0
45864;BME280;31579;52.354;16.974;2023-01-27T04:28:52;172.2;;;-146.1;100.0
45864;BME280;31579;52.354;16.974;2023-01-27T04:29:55;172.6;;;-146.1;100.0
45864;BME280;31579;52.354;16.974;2023-01-27T04:30:58;173.1;;;-146.1;100.0
45864;BME280;31579;52.354;16.974;2023-01-27T04:32:00;154.5;;;-146.1;100.0
45864;BME280;31579;52.354;16.974;2023-01-27T04:33:04;168.8;;;-146.1;100.0
45864;BME280;31579;52.354;16.974;2023-01-27T04:34:07;176.0;;;-146.1;100.0
45864;BME280;31579;52.354;16.974;2023-01-27T04:35:10;177.5;;;-146.1;100.0
45864;BME280;31579;52.354;16.974;2023-01-27T04:36:12;154.9;;;-146.1;100.0
45864;BME280;31579;52.354;16.974;2023-01-27T04:37:14;138.5;;;-146.1;100.0
45864;BME280;31579;52.354;16.974;2023-01-27T04:38:17;171.0;;;-146.1;100.0
45864;BME280;31579;52.354;16.974;2023-01-27T04:39:21;183.2;;;-146.1;100.0
45864;BME280;31579;52.354;16.974;2023-01-27T04:40:24;187.8;;;-146.1;100.0
45864;BME280;31579;52.354;16.974;2023-01-27T04:41:27;188.0;;;-146.1;100.0
45864;BME280;31579;52.354;16.974;2023-01-27T04:42:30;187.8;;;-146.1;100.0
45864;BME280;31579;52.354;16.974;2023-01-27T04:43:33;186.5;;;-146.1;100.0
45864;BME280;31579;52.354;16.974;2023-01-27T04:44:36;185.6;;;-146.1;100.0
45864;BME280;31579;52.354;16.974;2023-01-27T04:45:39;183.6;;;-146.1;100.0
45864;BME280;31579;52.354;16.974;2023-01-27T04:46:42;181.8;;;-146.1;100.0
45864;BME280;31579;52.354;16.974;2023-01-27T04:47:45;180.7;;;-146.1;100.0
45864;BME280;31579;52.354;16.974;2023-01-27T04:48:48;179.0;;;-146.1;100.0
45864;BME280;31579;52.354;16.974;2023-01-27T04:49:51;177.8;;;-146.1;100.0
45864;BME280;31579;52.354;16.974;2023-01-27T04:50:54;176.7;;;-146.1;100.0
45864;BME280;31579;52.354;16.974;2023-01-27T04:51:57;175.0;;;-146.1;100.0
45864;BME280;31579;52.354;16.974;2023-01-27T04:53:00;145.6;;;-146.1;100.0
45864;BME280;31579;52.354;16.974;2023-01-27T04:54:03;165.6;;;-146.1;100.0
45864;BME280;31579;52.354;16.974;2023-01-27T04:55:06;173.9;;;-146.1;100.0
45864;BME280;31579;52.354;16.974;2023-01-27T04:57:13;210.3;;;-146.1;100.0
45864;BME280;31579;52.354;16.974;2023-01-27T04:58:16;181.9;;;-146.1;100.0
45864;BME280;31579;52.354;16.974;2023-01-27T04:59:19;172.4;;;-146.1;100.0
45864;BME280;31579;52.354;16.974;2023-01-27T05:00:22;168.4;;;-146.1;100.0
45864;BME280;31579;52.354;16.974;2023-01-27T05:01:25;165.8;;;-146.1;100.0
45864;BME280;31579;52.354;16.974;2023-01-27T05:02:28;163.6;;;-146.1;100.0
45864;BME280;31579;52.354;16.974;2023-01-27T05:03:31;162.5;;;-146.1;100.0
45864;BME280;31579;52.354;16.974;2023-01-27T05:04:34;161.4;;;-146.1;100.0
45864;BME280;31579;52.354;16.974;2023-01-27T05:05:37;160.4;;;-146.1;100.0
45864;BME280;31579;52.354;16.974;2023-01-27T05:06:41;158.6;;;-146.1;100.0
45864;BME280;31579;52.354;16.974;2023-01-27T05:07:44;158.1;;;-146.1;100.0
45864;BME280;31579;52.354;16.974;2023-01-27T05:08:47;157.4;;;-146.1;100.0
45864;BME280;31579;52.354;16.974;2023-01-27T05:09:50;156.8;;;-146.1;100.0
45864;BME280;31579;52.354;16.974;2023-01-27T05:10:53;156.2;;;-146.1;100.0
45864;BME280;31579;52.354;16.974;2023-01-27T05:11:56;156.0;;;-146.1;100.0
45864;BME280;31579;52.354;16.974;2023-01-27T05:13:06;248.5;;;-146.1;100.0
45864;BME280;31579;52.354;16.974;2023-01-27T05:14:09;158.9;;;-146.1;100.0
45864;BME280;31579;52.354;16.974;2023-01-27T05:15:12;143.6;;;-146.1;100.0
45864;BME280;31579;52.354;16.974;2023-01-27T05:16:16;141.7;;;-146.1;100.0
45864;BME280;31579;52.354;16.974;2023-01-27T05:17:18;143.0;;;-146.1;100.0
45864;BME280;31579;52.354;16.974;2023-01-27T05:18:21;145.5;;;-146.1;100.0
45864;BME280;31579;52.354;16.974;2023-01-27T05:19:24;148.1;;;-146.1;100.0
45864;BME280;31579;52.354;16.974;2023-01-27T05:20:27;151.0;;;-146.1;100.0
45864;BME280;31579;52.354;16.974;2023-01-27T05:21:30;154.1;;;-146.1;100.0
45864;BME280;31579;52.354;16.974;2023-01-27T05:22:33;156.2;;;-146.1;100.0
45864;BME280;31579;52.354;16.974;2023-01-27T05:23:36;158.3;;;-146.1;100.0
45864;BME280;31579;52.354;16.974;2023-01-27T05:24:39;160.5;;;-146.1;100.0
45864;BME280;31579;52.354;16.974;2023-01-27T05:25:42;162.3;;;-146.1;100.0
45864;BME280;31579;52.354;16.974;2023-01-27T05:26:45;163.8;;;-146.1;100.0
45864;BME280;31579;52.354;16.974;2023-01-27T05:27:48;164.6;;;-146.1;100.0
45864;BME280;31579;52.354;16.974;2023-01-27T05:28:52;166.2;;;-146.1;100.0
45864;BME280;31579;52.354;16.974;2023-01-27T05:29:54;167.4;;;-146.1;100.0
45864;BME280;31579;52.354;16.974;2023-01-27T05:31:09;240.5;;;-146.1;100.0
45864;BME280;31579;52.354;16.974;2023-01-27T05:32:07;168.5;;;-146.1;100.0
45864;BME280;31579;52.354;16.974;2023-01-27T05:33:10;162.0;;;-146.1;100.0
45864;BME280;31579;52.354;16.974;2023-01-27T05:34:13;163.6;;;-146.1;100.0
45864;BME280;31579;52.354;16.974;2023-01-27T05:35:17;166.7;;;-146.1;100.0
45864;BME280;31579;52.354;16.974;2023-01-27T05:36:20;170.3;;;-146.1;100.0
45864;BME280;31579;52.354;16.974;2023-01-27T05:37:22;173.9;;;-146.1;100.0
45864;BME280;31579;52.354;16.974;2023-01-27T05:38:25;177.4;;;-146.1;100.0
45864;BME280;31579;52.354;16.974;2023-01-27T05:39:28;180.6;;;-146.1;100.0
45864;BME280;31579;52.354;16.974;2023-01-27T05:40:31;184.1;;;-146.1;100.0
45864;BME280;31579;52.354;16.974;2023-01-27T05:41:34;186.7;;;-146.1;100.0
45864;BME280;31579;52.354;16.974;2023-01-27T05:42:38;189.3;;;-146.1;100.0
45864;BME280;31579;52.354;16.974;2023-01-27T05:43:42;191.4;;;-146.1;100.0
45864;BME280;31579;52.354;16.974;2023-01-27T05:44:59;253.2;;;-146.1;100.0
45864;BME280;31579;52.354;16.974;2023-01-27T05:46:03;183.6;;;-146.1;100.0
45864;BME280;31579;52.354;16.974;2023-01-27T05:47:05;185.5;;;-146.1;100.0
45864;BME280;31579;52.354;16.974;2023-01-27T05:48:09;192.1;;;-146.1;100.0
45864;BME280;31579;52.354;16.974;2023-01-27T05:49:12;197.5;;;-146.1;100.0
45864;BME280;31579;52.354;16.974;2023-01-27T05:50:15;202.0;;;-146.1;100.0
45864;BME280;31579;52.354;16.974;2023-01-27T05:51:20;205.0;;;-146.1;100.0
45864;BME280;31579;52.354;16.974;2023-01-27T05:52:22;208.7;;;-146.1;100.0